createdAt,value
2023-03-16T00:00:09.582Z,101720.53
2023-03-16T00:02:37.098Z,101718.72
2023-03-16T00:05:04.705Z,101714.41
2023-03-16T00:07:34.304Z,101709.25
2023-03-16T00:10:01.800Z,101708.41
2023-03-16T00:12:29.346Z,101702.31
2023-03-16T00:14:56.876Z,101702.31
2023-03-16T00:17:24.357Z,101696.25
2023-03-16T00:19:54.956Z,101697.09
2023-03-16T00:22:23.074Z,101691.88
2023-03-16T00:24:52.632Z,101687.56
2023-03-16T00:27:20.180Z,101691.06
2023-03-16T00:29:48.230Z,101698.09
2023-03-16T00:32:17.383Z,101696.41
2023-03-16T00:34:45.289Z,101695.50
2023-03-16T00:37:14.045Z,101704.13
2023-03-16T00:39:41.892Z,101701.50
2023-03-16T00:42:11.084Z,101705.00
2023-03-16T00:44:38.935Z,101704.13
2023-03-16T00:47:06.575Z,101709.34
2023-03-16T00:49:34.798Z,101705.00
2023-03-16T00:52:02.766Z,101700.63
2023-03-16T00:54:32.674Z,101701.50
2023-03-16T00:57:00.378Z,101701.50
2023-03-16T00:59:29.256Z,101683.19
2023-03-16T01:01:57.021Z,101690.19
2023-03-16T01:04:24.646Z,101677.97
2023-03-16T01:06:52.222Z,101671.00
2023-03-16T01:09:20.520Z,101664.06
2023-03-16T01:11:50.890Z,101662.34
2023-03-16T01:14:18.419Z,101659.72
2023-03-16T01:16:47.356Z,101656.31
2023-03-16T01:19:15.497Z,101654.63
2023-03-16T01:21:43.438Z,101653.72
2023-03-16T01:24:11.111Z,101648.50
2023-03-16T01:26:38.595Z,101648.50
2023-03-16T01:29:06.195Z,101647.63
2023-03-16T01:31:33.708Z,101648.50
2023-03-16T01:34:04.137Z,101642.41
2023-03-16T01:36:32.214Z,101645.09
2023-03-16T01:39:00.302Z,101643.31
2023-03-16T01:41:28.091Z,101631.97
2023-03-16T01:43:58.233Z,101635.56
2023-03-16T01:46:26.720Z,101629.41
2023-03-16T01:49:05.537Z,101632.81
2023-03-16T01:51:34.287Z,101616.31
2023-03-16T01:54:02.818Z,101623.22
2023-03-16T01:56:31.112Z,101630.22
2023-03-16T01:58:59.324Z,101626.69
2023-03-16T02:01:27.621Z,101622.28
2023-03-16T02:03:56.699Z,101619.63
2023-03-16T02:06:25.771Z,101620.47
2023-03-16T02:08:55.273Z,101610.03
2023-03-16T02:11:22.779Z,101622.16
2023-03-16T02:13:50.423Z,101611.72
2023-03-16T02:16:19.557Z,101602.97
2023-03-16T02:18:47.308Z,101609.91
2023-03-16T02:21:17.067Z,101597.75
2023-03-16T02:23:46.007Z,101599.44
2023-03-16T02:26:15.756Z,101596.84
2023-03-16T02:28:48.584Z,101594.22
2023-03-16T02:31:17.686Z,101587.31
2023-03-16T02:33:45.292Z,101588.16
2023-03-16T02:36:13.943Z,101582.06
2023-03-16T02:38:41.535Z,101582.06
2023-03-16T02:41:11.207Z,101573.34
2023-03-16T02:43:39.305Z,101571.63
2023-03-16T02:46:06.871Z,101567.25
2023-03-16T02:48:37.456Z,101560.34
2023-03-16T02:51:05.034Z,101562.03
2023-03-16T02:53:32.544Z,101559.41
2023-03-16T02:56:00.030Z,101553.28
2023-03-16T02:58:27.575Z,101561.09
2023-03-16T03:00:55.177Z,101548.03
2023-03-16T03:03:22.805Z,101544.53
2023-03-16T03:05:51.830Z,101542.84
2023-03-16T03:08:20.331Z,101546.28
2023-03-16T03:10:47.830Z,101546.31
2023-03-16T03:13:15.336Z,101543.69
2023-03-16T03:15:42.861Z,101542.91
2023-03-16T03:18:10.384Z,101537.69
2023-03-16T03:20:37.903Z,101542.91
2023-03-16T03:23:06.808Z,101533.38
2023-03-16T03:25:35.245Z,101535.91
2023-03-16T03:28:05.409Z,101535.06
2023-03-16T03:30:33.476Z,101528.16
2023-03-16T03:33:01.537Z,101535.06
2023-03-16T03:35:29.070Z,101535.91
2023-03-16T03:37:56.601Z,101529.84
2023-03-16T03:40:25.440Z,101532.41
2023-03-16T03:42:52.953Z,101528.03
2023-03-16T03:45:20.563Z,101521.94
2023-03-16T03:47:48.015Z,101510.59
2023-03-16T03:50:15.547Z,101515.78
2023-03-16T03:52:43.021Z,101515.78
2023-03-16T03:55:11.015Z,101505.34
2023-03-16T03:57:39.928Z,101513.16
2023-03-16T04:00:11.420Z,101504.47
2023-03-16T04:02:39.278Z,101511.41
2023-03-16T04:05:07.418Z,101498.34
2023-03-16T04:07:34.924Z,101493.97
2023-03-16T04:10:02.421Z,101500.09
2023-03-16T04:12:29.853Z,101496.59
2023-03-16T04:14:58.753Z,101492.22
2023-03-16T04:17:26.221Z,101487.84
2023-03-16T04:19:53.785Z,101484.31
2023-03-16T04:22:23.173Z,101487.84
2023-03-16T04:24:52.284Z,101482.63
2023-03-16T04:27:19.758Z,101475.69
2023-03-16T04:29:47.212Z,101480.78
2023-03-16T04:32:16.205Z,101487.78
2023-03-16T04:34:43.919Z,101487.84
2023-03-16T04:37:11.845Z,101481.69
2023-03-16T04:39:39.472Z,101485.16
2023-03-16T04:42:07.341Z,101483.41
2023-03-16T04:44:34.820Z,101479.94
2023-03-16T04:47:02.414Z,101489.53
2023-03-16T04:49:31.276Z,101479.94
2023-03-16T04:51:58.751Z,101494.69
2023-03-16T04:54:26.189Z,101496.44
2023-03-16T04:56:53.701Z,101489.47
2023-03-16T04:59:21.193Z,101473.78
2023-03-16T05:01:48.756Z,101475.56
2023-03-16T05:04:19.396Z,101467.66
2023-03-16T05:06:48.806Z,101467.66
2023-03-16T05:09:16.344Z,101470.34
2023-03-16T05:11:43.959Z,101463.41
2023-03-16T05:14:11.506Z,101469.56
2023-03-16T05:16:39.021Z,101466.94
2023-03-16T05:19:06.537Z,101460.88
2023-03-16T05:21:34.290Z,101456.63
2023-03-16T05:24:03.272Z,101453.09
2023-03-16T05:26:31.369Z,101453.09
2023-03-16T05:28:59.319Z,101447.88
2023-03-16T05:31:27.356Z,101447.88
2023-03-16T05:33:54.866Z,101444.34
2023-03-16T05:36:22.355Z,101448.72
2023-03-16T05:38:49.978Z,101451.41
2023-03-16T05:41:21.350Z,101460.97
2023-03-16T05:43:48.859Z,101468.88
2023-03-16T05:46:17.467Z,101462.72
2023-03-16T05:48:45.883Z,101461.88
2023-03-16T05:51:14.232Z,101459.34
2023-03-16T05:53:41.844Z,101456.66
2023-03-16T05:56:09.573Z,101449.75
2023-03-16T05:58:38.423Z,101445.44
2023-03-16T06:01:07.304Z,101446.28
2023-03-16T06:03:34.799Z,101446.34
2023-03-16T06:06:02.522Z,101451.50
2023-03-16T06:08:30.003Z,101449.81
2023-03-16T06:10:57.473Z,101458.44
2023-03-16T06:13:24.980Z,101468.88
2023-03-16T06:15:53.835Z,101472.28
2023-03-16T06:18:21.434Z,101478.38
2023-03-16T06:20:48.950Z,101458.31
2023-03-16T06:23:16.529Z,101466.94
2023-03-16T06:25:44.126Z,101465.13
2023-03-16T06:28:11.591Z,101456.38
2023-03-16T06:30:39.160Z,101455.41
2023-03-16T06:33:08.188Z,101448.34
2023-03-16T06:35:35.796Z,101452.59
2023-03-16T06:38:03.359Z,101442.97
2023-03-16T06:40:31.090Z,101449.81
2023-03-16T06:42:58.608Z,101432.38
2023-03-16T06:45:26.157Z,101431.47
2023-03-16T06:47:53.695Z,101426.16
2023-03-16T06:50:22.600Z,101432.25
2023-03-16T06:52:50.161Z,101432.22
2023-03-16T06:55:17.753Z,101433.06
2023-03-16T06:57:45.302Z,101433.91
2023-03-16T07:00:14.139Z,101441.66
2023-03-16T07:02:42.445Z,101432.00
2023-03-16T07:05:13.058Z,101440.69
2023-03-16T07:07:42.609Z,101439.72
2023-03-16T07:10:11.535Z,101445.75
2023-03-16T07:12:39.312Z,101439.53
2023-03-16T07:15:07.254Z,101448.09
2023-03-16T07:17:34.814Z,101449.81
2023-03-16T07:20:05.360Z,101442.75
2023-03-16T07:22:33.200Z,101450.50
2023-03-16T07:25:02.022Z,101444.34
2023-03-16T07:27:29.921Z,101454.72
2023-03-16T07:29:57.509Z,101452.88
2023-03-16T07:32:25.113Z,101452.81
2023-03-16T07:34:53.503Z,101446.66
2023-03-16T07:37:25.508Z,101443.94
2023-03-16T07:39:53.339Z,101447.34
2023-03-16T07:42:22.736Z,101453.28
2023-03-16T07:44:51.907Z,101455.72
2023-03-16T07:47:19.987Z,101456.44
2023-03-16T07:49:47.584Z,101464.06
2023-03-16T07:52:15.128Z,101463.06
2023-03-16T07:54:43.258Z,101455.91
2023-03-16T07:57:12.173Z,101460.09
2023-03-16T07:59:41.533Z,101459.91
2023-03-16T08:02:11.807Z,101447.47
2023-03-16T08:04:42.365Z,101443.81
2023-03-16T08:07:09.981Z,101448.84
2023-03-16T08:09:37.506Z,101462.63
2023-03-16T08:12:05.125Z,101458.13
2023-03-16T08:14:34.343Z,101462.38
2023-03-16T08:17:03.417Z,101459.69
2023-03-16T08:19:30.851Z,101459.63
2023-03-16T08:22:02.003Z,101458.72
2023-03-16T08:24:31.034Z,101464.78
2023-03-16T08:26:58.879Z,101460.41
2023-03-16T08:29:26.530Z,101474.25
2023-03-16T08:31:54.726Z,101459.34
2023-03-16T08:34:23.719Z,101462.69
2023-03-16T08:36:51.221Z,101466.06
2023-03-16T08:39:18.701Z,101465.13
2023-03-16T08:41:47.082Z,101467.50
2023-03-16T08:44:14.695Z,101464.81
2023-03-16T08:46:42.362Z,101461.28
2023-03-16T08:49:09.968Z,101452.44
2023-03-16T08:51:39.279Z,101464.63
2023-03-16T08:54:07.515Z,101462.84
2023-03-16T08:56:35.036Z,101461.00
2023-03-16T08:59:03.643Z,101468.00
2023-03-16T09:01:32.003Z,101473.16
2023-03-16T09:04:00.560Z,101463.53
2023-03-16T09:06:28.725Z,101473.06
2023-03-16T09:08:57.622Z,101466.13
2023-03-16T09:11:28.342Z,101458.28
2023-03-16T09:13:55.819Z,101462.59
2023-03-16T09:16:25.642Z,101460.88
2023-03-16T09:18:53.568Z,101467.81
2023-03-16T09:21:21.063Z,101461.72
2023-03-16T09:23:48.547Z,101459.97
2023-03-16T09:26:17.448Z,101457.34
2023-03-16T09:28:45.976Z,101457.34
2023-03-16T09:31:15.914Z,101452.09
2023-03-16T09:33:43.957Z,101438.09
2023-03-16T09:36:12.301Z,101436.25
2023-03-16T09:38:39.838Z,101441.38
2023-03-16T09:41:08.576Z,101437.75
2023-03-16T09:43:47.157Z,101438.44
2023-03-16T09:46:15.369Z,101443.63
2023-03-16T09:48:42.923Z,101435.69
2023-03-16T09:51:14.309Z,101426.75
2023-03-16T09:53:41.971Z,101430.06
2023-03-16T09:56:10.930Z,101426.41
2023-03-16T09:58:38.697Z,101432.41
2023-03-16T10:01:11.260Z,101431.41
2023-03-16T10:03:45.409Z,101431.31
2023-03-16T10:06:14.617Z,101431.19
2023-03-16T10:08:42.641Z,101423.94
2023-03-16T10:11:17.532Z,101410.72
2023-03-16T10:13:45.709Z,101406.97
2023-03-16T10:16:15.532Z,101399.63
2023-03-16T10:18:43.826Z,101397.66
2023-03-16T10:21:15.167Z,101387.81
2023-03-16T10:23:42.719Z,101396.25
2023-03-16T10:26:12.985Z,101392.59
2023-03-16T10:28:42.808Z,101395.97
2023-03-16T10:31:10.754Z,101385.34
2023-03-16T10:33:40.508Z,101388.72
2023-03-16T10:36:13.933Z,101385.19
2023-03-16T10:38:43.170Z,101380.72
2023-03-16T10:41:20.190Z,101377.94
2023-03-16T10:43:49.252Z,101376.09
2023-03-16T10:46:17.765Z,101370.69
2023-03-16T10:48:54.680Z,101360.91
2023-03-16T10:51:23.365Z,101361.66
2023-03-16T10:53:50.932Z,101362.41
2023-03-16T10:56:20.667Z,101364.97
2023-03-16T10:58:48.162Z,101355.34
2023-03-16T11:01:18.821Z,101361.44
2023-03-16T11:03:50.462Z,101366.69
2023-03-16T11:06:21.145Z,101367.44
2023-03-16T11:08:48.826Z,101371.59
2023-03-16T11:11:18.607Z,101366.28
2023-03-16T11:13:47.052Z,101368.75
2023-03-16T11:16:23.204Z,101357.25
2023-03-16T11:18:53.173Z,101347.53
2023-03-16T11:21:25.780Z,101354.38
2023-03-16T11:23:54.287Z,101348.13
2023-03-16T11:26:22.571Z,101349.81
2023-03-16T11:28:51.776Z,101344.50
2023-03-16T11:31:21.128Z,101340.78
2023-03-16T11:33:49.075Z,101340.69
2023-03-16T11:36:27.804Z,101325.75
2023-03-16T11:38:57.899Z,101326.41
2023-03-16T11:41:27.776Z,101320.94
2023-03-16T11:43:56.874Z,101310.09
2023-03-16T11:46:25.089Z,101307.94
2023-03-16T11:48:54.628Z,101305.66
2023-03-16T11:51:28.679Z,101303.34
2023-03-16T11:53:58.910Z,101291.41
2023-03-16T11:56:33.514Z,101293.44
2023-03-16T11:59:22.125Z,101278.94
2023-03-16T12:02:00.685Z,101268.84
2023-03-16T12:04:36.992Z,101272.81
2023-03-16T12:07:09.425Z,101273.97
2023-03-16T12:09:58.167Z,101267.34
2023-03-16T12:12:29.587Z,101255.44
2023-03-16T12:15:02.370Z,101263.75
2023-03-16T12:17:30.467Z,101258.19
2023-03-16T12:19:58.792Z,101259.66
2023-03-16T12:22:29.191Z,101249.78
2023-03-16T12:24:56.710Z,101244.34
2023-03-16T12:27:24.943Z,101248.56
2023-03-16T12:30:01.798Z,101245.00
2023-03-16T12:32:32.429Z,101230.16
2023-03-16T12:35:01.954Z,101222.47
2023-03-16T12:37:33.032Z,101226.22
2023-03-16T12:40:10.728Z,101213.19
2023-03-16T12:42:56.412Z,101224.72
2023-03-16T12:45:25.595Z,101210.78
2023-03-16T12:47:54.493Z,101215.19
2023-03-16T12:50:21.982Z,101215.19
2023-03-16T12:52:51.782Z,101217.91
2023-03-16T12:55:20.004Z,101213.50
2023-03-16T12:57:48.195Z,101205.53
2023-03-16T13:00:16.232Z,101193.19
2023-03-16T13:02:45.368Z,101193.94
2023-03-16T13:05:14.029Z,101191.09
2023-03-16T13:07:47.764Z,101186.53
2023-03-16T13:10:17.181Z,101191.47
2023-03-16T13:12:46.198Z,101179.75
2023-03-16T13:15:26.413Z,101174.00
2023-03-16T13:18:04.452Z,101167.44
2023-03-16T13:20:32.700Z,101167.22
2023-03-16T13:23:17.128Z,101171.13
2023-03-16T13:25:46.552Z,101169.66
2023-03-16T13:28:14.542Z,101166.84
2023-03-16T13:30:44.882Z,101166.13
2023-03-16T13:33:15.693Z,101151.72
2023-03-16T13:35:43.303Z,101162.06
2023-03-16T13:38:14.819Z,101154.69
2023-03-16T13:40:47.888Z,101147.34
2023-03-16T13:43:16.151Z,101153.56
2023-03-16T13:45:43.818Z,101149.16
2023-03-16T13:48:12.961Z,101139.34
2023-03-16T13:50:41.354Z,101136.84
2023-03-16T13:53:12.156Z,101127.22
2023-03-16T13:55:40.234Z,101115.72
2023-03-16T13:58:18.014Z,101102.81
2023-03-16T14:00:45.886Z,101102.41
2023-03-16T14:03:16.229Z,101108.91
2023-03-16T14:05:43.914Z,101088.53
2023-03-16T14:08:18.374Z,101070.06
2023-03-16T14:10:46.723Z,101072.19
2023-03-16T14:13:26.039Z,101059.94
2023-03-16T14:15:54.654Z,101057.31
2023-03-16T14:18:24.790Z,101060.66
2023-03-16T14:20:52.438Z,101061.31
2023-03-16T14:23:20.854Z,101062.66
2023-03-16T14:25:48.874Z,101055.47
2023-03-16T14:28:16.879Z,101046.16
2023-03-16T14:30:52.462Z,101030.72
2023-03-16T14:33:37.846Z,101039.94
2023-03-16T14:36:09.211Z,101040.47
2023-03-16T14:38:38.141Z,101034.00
2023-03-16T14:41:07.989Z,101037.13
2023-03-16T14:43:38.193Z,101032.34
2023-03-16T14:46:07.464Z,101033.06
2023-03-16T14:48:35.327Z,101037.31
2023-03-16T14:51:03.118Z,101038.13
2023-03-16T14:53:30.996Z,101031.06
2023-03-16T14:55:58.732Z,101032.84
2023-03-16T14:58:26.533Z,101018.56
2023-03-16T15:00:55.468Z,101002.47
2023-03-16T15:03:25.088Z,101005.03
2023-03-16T15:05:52.631Z,100999.50
2023-03-16T15:08:20.876Z,101001.19
2023-03-16T15:10:48.498Z,101001.91
2023-03-16T15:13:34.650Z,101001.69
2023-03-16T15:16:03.408Z,101001.69
2023-03-16T15:18:32.656Z,101001.44
2023-03-16T15:21:00.415Z,101003.94
2023-03-16T15:23:27.923Z,101002.28
2023-03-16T15:26:00.139Z,100985.38
2023-03-16T15:28:28.307Z,100992.41
2023-03-16T15:30:56.549Z,100983.66
2023-03-16T15:33:24.214Z,100982.72
2023-03-16T15:35:55.603Z,100996.16
2023-03-16T15:38:24.149Z,100985.09
2023-03-16T15:40:52.161Z,100981.25
2023-03-16T15:43:20.384Z,100979.06
2023-03-16T15:45:48.194Z,100975.94
2023-03-16T15:48:16.245Z,100962.34
2023-03-16T15:50:45.811Z,100960.91
2023-03-16T15:53:29.654Z,100957.78
2023-03-16T15:55:59.207Z,100955.47
2023-03-16T15:58:27.821Z,100946.84
2023-03-16T16:00:57.075Z,100941.03
2023-03-16T16:03:24.791Z,100943.94
2023-03-16T16:05:52.641Z,100938.97
2023-03-16T16:08:21.671Z,100947.38
2023-03-16T16:10:49.546Z,100943.41
2023-03-16T16:13:18.174Z,100944.69
2023-03-16T16:15:45.666Z,100937.00
2023-03-16T16:18:21.707Z,100937.22
2023-03-16T16:20:49.764Z,100946.22
2023-03-16T16:23:18.020Z,100935.06
2023-03-16T16:25:47.016Z,100936.09
2023-03-16T16:28:15.802Z,100940.78
2023-03-16T16:30:43.433Z,100940.16
2023-03-16T16:33:21.732Z,100942.19
2023-03-16T16:35:49.255Z,100937.22
2023-03-16T16:38:16.768Z,100929.69
2023-03-16T16:40:46.106Z,100922.94
2023-03-16T16:43:17.716Z,100928.44
2023-03-16T16:45:45.232Z,100924.44
2023-03-16T16:48:14.583Z,100925.50
2023-03-16T16:50:42.110Z,100918.75
2023-03-16T16:53:12.213Z,100911.19
2023-03-16T16:55:42.219Z,100914.97
2023-03-16T16:58:18.464Z,100918.81
2023-03-16T17:00:51.992Z,100912.91
2023-03-16T17:03:24.106Z,100912.28
2023-03-16T17:05:52.267Z,100919.44
2023-03-16T17:08:19.940Z,100920.63
2023-03-16T17:10:47.784Z,100929.56
2023-03-16T17:13:21.842Z,100927.88
2023-03-16T17:15:49.374Z,100928.13
2023-03-16T17:18:18.181Z,100926.56
2023-03-16T17:20:45.801Z,100928.44
2023-03-16T17:23:22.684Z,100931.28
2023-03-16T17:25:50.559Z,100921.00
2023-03-16T17:28:18.446Z,100928.25
2023-03-16T17:30:47.868Z,100925.00
2023-03-16T17:33:15.766Z,100932.16
2023-03-16T17:35:45.730Z,100931.53
2023-03-16T17:38:17.342Z,100925.63
2023-03-16T17:40:44.956Z,100930.16
2023-03-16T17:43:13.328Z,100930.38
2023-03-16T17:45:41.179Z,100933.13
2023-03-16T17:48:12.668Z,100927.09
2023-03-16T17:50:40.567Z,100931.66
2023-03-16T17:53:09.538Z,100933.66
2023-03-16T17:55:38.666Z,100931.13
2023-03-16T17:58:06.215Z,100929.53
2023-03-16T18:00:34.282Z,100926.91
2023-03-16T18:03:02.782Z,100924.50
2023-03-16T18:05:31.082Z,100929.22
2023-03-16T18:07:59.994Z,100926.59
2023-03-16T18:10:29.669Z,100917.97
2023-03-16T18:12:58.681Z,100922.59
2023-03-16T18:15:29.247Z,100916.47
2023-03-16T18:17:56.858Z,100925.44
2023-03-16T18:20:27.716Z,100913.31
2023-03-16T18:22:56.146Z,100921.44
2023-03-16T18:25:30.327Z,100913.66
2023-03-16T18:27:58.595Z,100913.00
2023-03-16T18:30:27.198Z,100915.63
2023-03-16T18:32:55.182Z,100911.44
2023-03-16T18:35:22.790Z,100915.97
2023-03-16T18:37:50.261Z,100911.75
2023-03-16T18:40:18.761Z,100916.25
2023-03-16T18:42:47.704Z,100912.06
2023-03-16T18:45:16.313Z,100913.13
2023-03-16T18:47:45.601Z,100915.09
2023-03-16T18:50:21.371Z,100918.06
2023-03-16T18:52:48.914Z,100912.97
2023-03-16T18:55:17.181Z,100902.47
2023-03-16T18:57:46.573Z,100902.56
2023-03-16T19:00:20.239Z,100899.09
2023-03-16T19:02:48.336Z,100901.84
2023-03-16T19:05:17.018Z,100896.56
2023-03-16T19:07:45.682Z,100895.72
2023-03-16T19:10:20.316Z,100887.91
2023-03-16T19:12:47.747Z,100893.19
2023-03-16T19:15:19.761Z,100896.66
2023-03-16T19:17:47.841Z,100888.69
2023-03-16T19:20:15.818Z,100889.63
2023-03-16T19:22:43.849Z,100901.00
2023-03-16T19:25:15.823Z,100888.75
2023-03-16T19:27:43.274Z,100883.59
2023-03-16T19:30:12.991Z,100880.97
2023-03-16T19:32:41.862Z,100878.47
2023-03-16T19:35:11.898Z,100878.66
2023-03-16T19:37:39.389Z,100877.00
2023-03-16T19:40:07.531Z,100876.22
2023-03-16T19:42:36.305Z,100868.34
2023-03-16T19:45:03.931Z,100858.88
2023-03-16T19:47:31.862Z,100865.94
2023-03-16T19:50:00.960Z,100868.56
2023-03-16T19:52:31.187Z,100871.28
2023-03-16T19:54:58.767Z,100870.53
2023-03-16T19:57:26.508Z,100854.75
2023-03-16T19:59:54.603Z,100854.88
2023-03-16T20:02:26.510Z,100851.28
2023-03-16T20:04:54.603Z,100833.09
2023-03-16T20:07:23.564Z,100833.94
2023-03-16T20:09:51.430Z,100823.53
2023-03-16T20:12:21.878Z,100823.53
2023-03-16T20:14:49.510Z,100824.47
2023-03-16T20:17:19.376Z,100828.06
2023-03-16T20:19:46.838Z,100822.78
2023-03-16T20:22:14.537Z,100835.94
2023-03-16T20:24:44.286Z,100828.91
2023-03-16T20:27:12.600Z,100828.06
2023-03-16T20:29:40.124Z,100833.31
2023-03-16T20:32:08.158Z,100832.38
2023-03-16T20:34:36.038Z,100824.38
2023-03-16T20:37:03.572Z,100816.59
2023-03-16T20:39:31.711Z,100808.69
2023-03-16T20:42:00.886Z,100809.44
2023-03-16T20:44:30.142Z,100815.53
2023-03-16T20:46:57.684Z,100814.59
2023-03-16T20:49:29.959Z,100821.63
2023-03-16T20:51:57.532Z,100811.09
2023-03-16T20:54:25.116Z,100800.59
2023-03-16T20:56:52.642Z,100799.63
2023-03-16T20:59:23.814Z,100792.59
2023-03-16T21:01:51.904Z,100799.53
2023-03-16T21:04:20.776Z,100797.84
2023-03-16T21:06:50.851Z,100785.53
2023-03-16T21:09:18.465Z,100792.47
2023-03-16T21:11:46.042Z,100797.66
2023-03-16T21:14:15.414Z,100797.66
2023-03-16T21:16:44.650Z,100790.72
2023-03-16T21:19:15.482Z,100771.38
2023-03-16T21:21:42.944Z,100777.47
2023-03-16T21:24:10.474Z,100771.38
2023-03-16T21:26:38.355Z,100776.63
2023-03-16T21:29:08.304Z,100777.56
2023-03-16T21:31:36.249Z,100766.19
2023-03-16T21:34:05.641Z,100776.69
2023-03-16T21:36:33.125Z,100773.16
2023-03-16T21:39:00.578Z,100768.81
2023-03-16T21:41:28.293Z,100773.22
2023-03-16T21:43:55.867Z,100777.66
2023-03-16T21:46:23.965Z,100770.72
2023-03-16T21:48:52.298Z,100762.94
2023-03-16T21:51:22.013Z,100764.72
2023-03-16T21:53:49.892Z,100747.28
2023-03-16T21:56:18.443Z,100749.91
2023-03-16T21:58:46.348Z,100744.63
2023-03-16T22:01:20.758Z,100748.22
2023-03-16T22:03:51.286Z,100762.31
2023-03-16T22:06:19.024Z,100762.31
2023-03-16T22:08:49.214Z,100757.25
2023-03-16T22:11:17.911Z,100758.09
2023-03-16T22:13:46.227Z,100759.88
2023-03-16T22:16:14.163Z,100752.22
2023-03-16T22:18:41.631Z,100742.66
2023-03-16T22:21:14.481Z,100741.88
2023-03-16T22:23:41.960Z,100746.19
2023-03-16T22:26:14.376Z,100745.47
2023-03-16T22:28:42.023Z,100743.78
2023-03-16T22:31:11.366Z,100741.28
2023-03-16T22:33:40.468Z,100753.56
2023-03-16T22:36:09.344Z,100745.88
2023-03-16T22:38:36.820Z,100757.34
2023-03-16T22:41:04.333Z,100752.31
2023-03-16T22:43:33.795Z,100753.25
2023-03-16T22:46:01.370Z,100751.72
2023-03-16T22:48:29.976Z,100743.13
2023-03-16T22:50:57.910Z,100740.59
2023-03-16T22:53:26.688Z,100736.28
2023-03-16T22:55:54.599Z,100735.44
2023-03-16T22:58:25.224Z,100727.75
2023-03-16T23:00:54.977Z,100721.88
2023-03-16T23:03:23.181Z,100720.19
2023-03-16T23:05:50.840Z,100720.38
2023-03-16T23:08:19.490Z,100719.56
2023-03-16T23:10:46.935Z,100710.94
2023-03-16T23:13:16.152Z,100727.66
2023-03-16T23:15:44.297Z,100718.09
2023-03-16T23:18:17.483Z,100730.47
2023-03-16T23:20:45.152Z,100732.34
2023-03-16T23:23:12.628Z,100728.06
2023-03-16T23:25:40.173Z,100722.91
2023-03-16T23:28:08.046Z,100721.22
2023-03-16T23:30:36.009Z,100721.22
2023-03-16T23:33:03.580Z,100717.00
2023-03-16T23:35:32.550Z,100713.44
2023-03-16T23:38:00.154Z,100717.00
2023-03-16T23:40:28.697Z,100707.31
2023-03-16T23:42:57.090Z,100705.66
2023-03-16T23:45:29.621Z,100710.06
2023-03-16T23:47:57.688Z,100708.38
2023-03-16T23:50:26.092Z,100701.47
2023-03-16T23:52:56.849Z,100717.22
2023-03-16T23:55:24.737Z,100719.94
2023-03-16T23:57:52.342Z,100724.25
